Latest Weather Observations for Sydney Harbour

IDN60901

Issued at 6:02 pm EST Saturday 5 September 2026 (issued every 10 minutes, with the page automatically refreshed every 10 minutes)

About weather observations | Map of Sydney area stations | Latest observations for Sydney area | Other Formats
Station Details ID: 066196 Name: WEDDING CAKE WEST Lat: -33.84 Lon: 151.26 Height: 6.0 m
Data from the previous 72 hours. | See also: Recent months at Sydney Harbour
Date/Time
EST
Temp
°C
App
Temp
°C
Dew
Point
°C
Rel
Hum
%
Delta-T
°C
Wind Press
QNH
hPa
Press
MSL
hPa
Rain since
9am
mm
Dir  Spd
km/h
Gust
km/h
Spd
kts
Gust
kts
05/06:00pm 22.5 - - - - N 22 41 12 22 - - -
05/05:30pm 22.1 - - - - W 32 43 17 23 - - -
05/05:00pm 22.5 - - - - W 32 46 17 25 - - -
05/04:56pm 22.4 - - - - W 33 44 18 24 - - -
05/04:38pm 23.4 - - - - WSW 52 78 28 42 - - -
05/04:31pm 24.4 - - - - WSW 65 102 35 55 - - -
05/04:30pm 24.4 - - - - WSW 63 102 34 55 - - -
05/04:22pm 26.7 - - - - W 44 96 24 52 - - -
05/04:21pm 27.7 - - - - W 41 85 22 46 - - -
05/04:14pm 28.9 - - - - W 32 50 17 27 - - -
05/04:00pm 29.5 - - - - WSW 33 48 18 26 - - -
05/03:50pm 29.3 - - - - W 28 41 15 22 - - -
05/03:39pm 29.5 - - - - W 37 57 20 31 - - -
05/03:36pm 30.0 - - - - W 32 57 17 31 - - -
05/03:32pm 29.7 - - - - WNW 28 57 15 31 - - -
05/03:30pm 31.0 - - - - WNW 24 48 13 26 - - -
05/03:22pm 31.3 - - - - WNW 30 48 16 26 - - -
05/03:02pm 30.8 - - - - NNW 22 44 12 24 - - -
05/03:00pm 31.0 - - - - NW 22 44 12 24 - - -
05/02:43pm 31.3 - - - - NNW 35 54 19 29 - - -
05/02:42pm 31.2 - - - - NNW 35 52 19 28 - - -
05/02:30pm 31.1 - - - - N 32 54 17 29 - - -
05/02:24pm 26.6 - - - - NNE 28 39 15 21 - - -
05/02:00pm 20.8 - - - - NE 41 46 22 25 - - -
05/01:30pm 20.7 - - - - NE 35 41 19 22 - - -
05/01:00pm 21.0 - - - - NE 37 46 20 25 - - -
05/12:30pm 21.0 - - - - NE 35 43 19 23 - - -
05/12:00pm 21.2 - - - - NNE 32 39 17 21 - - -
05/11:30am 22.5 - - - - NE 30 35 16 19 - - -
05/11:00am 24.4 - - - - N 22 30 12 16 - - -
05/10:30am 24.5 - - - - N 20 35 11 19 - - -
05/10:00am 24.0 - - - - N 28 37 15 20 - - -
05/09:30am 22.9 - - - - NNW 17 32 9 17 - - -
05/09:00am 21.8 - - - - N 24 32 13 17 - - -
05/08:30am 20.7 - - - - NNW 20 30 11 16 - - -
05/08:00am 20.1 - - - - NNW 24 35 13 19 - - -
05/07:30am 19.6 - - - - NNW 24 37 13 20 - - -
05/07:00am 19.0 - - - - NNW 24 35 13 19 - - -
05/06:30am 18.8 - - - - NNW 24 32 13 17 - - -
05/06:00am 18.5 - - - - NNW 28 35 15 19 - - -
05/05:30am 18.6 - - - - NNW 26 33 14 18 - - -
05/05:00am 18.7 - - - - NNW 26 37 14 20 - - -
05/04:30am 18.6 - - - - NNW 24 32 13 17 - - -
05/04:00am 18.3 - - - - NNW 24 33 13 18 - - -
05/03:30am 18.3 - - - - NNW 20 28 11 15 - - -
05/03:00am 18.6 - - - - NNW 20 24 11 13 - - -
05/02:30am 15.6 - - - - N 13 15 7 8 - - -
05/02:00am 16.8 - - - - NNW 13 17 7 9 - - -
05/01:30am 16.7 - - - - SSW 6 7 3 4 - - -
05/01:00am 16.1 - - - - W 7 9 4 5 - - -
05/12:30am 16.4 - - - - NE 9 11 5 6 - - -
05/12:00am 16.3 - - - - ESE 6 9 3 5 - - -
 
Date/Time
EST
Temp
°C
App
Temp
°C
Dew
Point
°C
Rel
Hum
%
Delta-T
°C
Wind Press
QNH
hPa
Press
MSL
hPa
Rain since
9am
mm
Dir  Spd
km/h
Gust
km/h
Spd
kts
Gust
kts
04/11:30pm 17.0 - - - - WNW 7 9 4 5 - - -
04/11:00pm 16.8 - - - - N 7 9 4 5 - - -
04/10:30pm 17.2 - - - - WNW 6 7 3 4 - - -
04/10:00pm 17.5 - - - - WNW 7 7 4 4 - - -
04/09:30pm 17.7 - - - - NW 6 7 3 4 - - -
04/09:00pm 17.9 - - - - NNW 7 13 4 7 - - -
04/08:30pm 18.0 - - - - N 17 20 9 11 - - -
04/08:00pm 17.9 - - - - N 19 20 10 11 - - -
04/07:30pm 17.9 - - - - N 19 24 10 13 - - -
04/07:00pm 18.1 - - - - N 20 28 11 15 - - -
04/06:30pm 18.1 - - - - N 24 32 13 17 - - -
04/06:00pm 18.2 - - - - NE 17 20 9 11 - - -
04/05:30pm 18.0 - - - - NE 22 26 12 14 - - -
04/05:00pm 18.3 - - - - NE 20 26 11 14 - - -
04/04:30pm 18.6 - - - - NE 19 24 10 13 - - -
04/04:00pm 18.5 - - - - NNE 24 30 13 16 - - -
04/03:30pm 18.6 - - - - NE 22 28 12 15 - - -
04/03:00pm 18.5 - - - - ENE 24 26 13 14 - - -
04/02:30pm 18.8 - - - - ENE 20 22 11 12 - - -
04/02:00pm 18.7 - - - - ENE 20 22 11 12 - - -
04/01:30pm 18.9 - - - - ENE 17 20 9 11 - - -
04/01:00pm 20.4 - - - - W 11 24 6 13 - - -
04/12:30pm 19.3 - - - - SSW 11 15 6 8 - - -
04/12:00pm 19.2 - - - - SW 17 20 9 11 - - -
04/11:30am 19.0 - - - - WSW 17 20 9 11 - - -
04/11:00am 18.7 - - - - W 15 20 8 11 - - -
04/10:30am 18.2 - - - - W 17 24 9 13 - - -
04/10:00am 17.4 - - - - WSW 19 24 10 13 - - -
04/09:30am 17.0 - - - - WSW 22 32 12 17 - - -
04/09:00am 16.5 - - - - W 22 30 12 16 - - -
04/08:30am 15.8 - - - - W 22 30 12 16 - - -
04/08:00am 15.2 - - - - WSW 20 26 11 14 - - -
04/07:30am 15.0 - - - - W 20 28 11 15 - - -
04/07:00am 15.0 - - - - WSW 19 26 10 14 - - -
04/06:30am 15.0 - - - - W 20 26 11 14 - - -
04/06:00am 15.2 - - - - WSW 20 30 11 16 - - -
04/05:30am 15.4 - - - - W 20 26 11 14 - - -
04/05:00am 15.6 - - - - W 22 28 12 15 - - -
04/04:30am 15.9 - - - - WSW 22 35 12 19 - - -
04/04:00am 15.9 - - - - W 24 35 13 19 - - -
04/03:30am 16.0 - - - - WSW 24 37 13 20 - - -
04/03:00am 16.2 - - - - W 24 33 13 18 - - -
04/02:30am 16.4 - - - - W 22 32 12 17 - - -
04/02:00am 16.5 - - - - W 24 35 13 19 - - -
04/01:30am 16.7 - - - - W 20 28 11 15 - - -
04/01:00am 16.8 - - - - W 26 35 14 19 - - -
04/12:30am 17.0 - - - - WSW 30 43 16 23 - - -
04/12:26am 17.1 - - - - WSW 32 43 17 23 - - -
04/12:07am 17.3 - - - - WSW 39 63 21 34 - - -
04/12:00am 17.2 - - - - WSW 39 54 21 29 - - -
 
Date/Time
EST
Temp
°C
App
Temp
°C
Dew
Point
°C
Rel
Hum
%
Delta-T
°C
Wind Press
QNH
hPa
Press
MSL
hPa
Rain since
9am
mm
Dir  Spd
km/h
Gust
km/h
Spd
kts
Gust
kts
03/11:30pm 17.4 - - - - W 28 44 15 24 - - -
03/11:00pm 17.6 - - - - WSW 32 41 17 22 - - -
03/10:30pm 18.1 - - - - WSW 26 35 14 19 - - -
03/10:00pm 18.5 - - - - WSW 26 39 14 21 - - -
03/09:30pm 19.2 - - - - W 30 46 16 25 - - -
03/09:29pm 19.1 - - - - W 32 46 17 25 - - -
03/09:12pm 19.8 - - - - W 28 50 15 27 - - -
03/09:00pm 20.1 - - - - W 24 33 13 18 - - -
03/08:30pm 20.9 - - - - W 17 26 9 14 - - -
03/08:00pm 21.1 - - - - WNW 17 22 9 12 - - -
03/07:30pm 21.5 - - - - WNW 13 20 7 11 - - -
03/07:00pm 22.2 - - - - WNW 15 24 8 13 - - -
03/06:30pm 23.4 - - - - W 15 26 8 14 - - -
03/06:00pm 24.0 - - - - W 17 22 9 12 - - -
03/05:30pm 24.5 - - - - WNW 13 20 7 11 - - -
03/05:00pm 25.1 - - - - WNW 19 24 10 13 - - -
03/04:30pm 25.2 - - - - W 20 33 11 18 - - -
03/04:00pm 25.5 - - - - W 19 32 10 17 - - -
03/03:30pm 25.7 - - - - W 28 39 15 21 - - -
03/03:00pm 25.8 - - - - W 26 35 14 19 - - -
03/02:30pm 25.3 - - - - WSW 24 37 13 20 - - -
03/02:00pm 25.2 - - - - WSW 26 43 14 23 - - -
03/01:30pm 25.0 - - - - WSW 28 35 15 19 - - -
03/01:00pm 24.9 - - - - WSW 32 39 17 21 - - -
03/12:30pm 24.8 - - - - W 32 43 17 23 - - -
03/12:00pm 24.9 - - - - WSW 32 44 17 24 - - -
03/11:30am 24.8 - - - - WSW 32 41 17 22 - - -
03/11:08am 25.0 - - - - WSW 32 48 17 26 - - -
03/11:00am 24.5 - - - - WSW 35 52 19 28 - - -
03/10:51am 24.9 - - - - WSW 28 52 15 28 - - -
03/10:30am 24.9 - - - - W 32 44 17 24 - - -
03/10:00am 24.7 - - - - WNW 33 46 18 25 - - -
03/09:30am 24.6 - - - - WNW 26 35 14 19 - - -
03/09:00am 24.3 - - - - NNW 13 24 7 13 - - -
03/08:30am 22.7 - - - - N 20 28 11 15 - - -
03/08:00am 21.0 - - - - NNE 13 17 7 9 - - -
03/07:30am 19.4 - - - - NE 15 17 8 9 - - -
03/07:00am 19.0 - - - - NE 17 19 9 10 - - -
03/06:30am 19.6 - - - - NE 19 22 10 12 - - -
03/06:00am 20.4 - - - - NNE 15 20 8 11 - - -
03/05:30am 20.8 - - - - N 11 15 6 8 - - -
03/05:00am 21.1 - - - - N 13 17 7 9 - - -
03/04:30am 21.5 - - - - W 17 24 9 13 - - -
03/04:00am 21.5 - - - - NNW 9 19 5 10 - - -
03/03:30am 21.5 - - - - NW 13 24 7 13 - - -
03/03:00am 21.4 - - - - NNW 11 22 6 12 - - -
03/02:30am 21.6 - - - - NW 19 28 10 15 - - -
03/02:00am 21.7 - - - - NNW 19 32 10 17 - - -
03/01:30am 21.4 - - - - NNW 15 24 8 13 - - -
03/01:00am 21.1 - - - - N 13 19 7 10 - - -
03/12:30am 20.9 - - - - N 7 15 4 8 - - -
03/12:00am 21.0 - - - - N 9 13 5 7 - - -
 
Date/Time
EST
Temp
°C
App
Temp
°C
Dew
Point
°C
Rel
Hum
%
Delta-T
°C
Wind Press
QNH
hPa
Press
MSL
hPa
Rain since
9am
mm
Dir  Spd
km/h
Gust
km/h
Spd
kts
Gust
kts
02/11:30pm 21.0 - - - - N 11 15 6 8 - - -
02/11:00pm 22.0 - - - - NNW 15 19 8 10 - - -
02/10:30pm 20.7 - - - - NNW 11 15 6 8 - - -
02/10:00pm 22.3 - - - - NNW 11 13 6 7 - - -
02/09:30pm 22.8 - - - - NNW 9 13 5 7 - - -
02/09:00pm 22.1 - - - - WNW 9 11 5 6 - - -
02/08:30pm 23.3 - - - - WNW 11 15 6 8 - - -
02/08:00pm 23.8 - - - - WNW 11 19 6 10 - - -
02/07:30pm 24.2 - - - - NW 20 24 11 13 - - -
02/07:00pm 24.6 - - - - NW 17 20 9 11 - - -
02/06:30pm 24.6 - - - - W 9 13 5 7 - - -

Latest Capital City Observations: Canberra | Sydney | Melbourne | Brisbane | Adelaide | Perth | Hobart | Darwin

Other formats

Comma delimited format used in spreadsheet applications
http://www.bom.gov.au/fwo/IDN60901/IDN60901.95766.axf

JavaScript Object Notation format (JSON) in row-major order
http://www.bom.gov.au/fwo/IDN60901/IDN60901.95766.json

Data quality

Most of these data are generated automatically and are frequently updated. Quality checks on data are not normally performed. It is possible for incorrect values to appear. Refer to information at About Latest Weather Observations and please check the disclaimer before using these data.